sensor_id;sensor_type;location;lat;lon;timestamp;P1;durP1;ratioP1;P2;durP2;ratioP2
71715;SDS011;59568;52.128;5.434;2024-03-08T00:00:10;22.33;;;9.93;;
71715;SDS011;59568;52.128;5.434;2024-03-08T00:02:43;20.87;;;9.63;;
71715;SDS011;59568;52.128;5.434;2024-03-08T00:05:11;25.85;;;9.73;;
71715;SDS011;59568;52.128;5.434;2024-03-08T00:07:38;24.38;;;9.40;;
71715;SDS011;59568;52.128;5.434;2024-03-08T00:10:07;22.90;;;10.05;;
71715;SDS011;59568;52.128;5.434;2024-03-08T00:12:40;19.98;;;8.98;;
71715;SDS011;59568;52.128;5.434;2024-03-08T00:15:15;22.10;;;9.77;;
71715;SDS011;59568;52.128;5.434;2024-03-08T00:17:45;22.42;;;8.90;;
71715;SDS011;59568;52.128;5.434;2024-03-08T00:20:14;23.00;;;9.88;;
71715;SDS011;59568;52.128;5.434;2024-03-08T00:22:45;22.40;;;9.77;;
71715;SDS011;59568;52.128;5.434;2024-03-08T00:25:13;20.83;;;10.00;;
71715;SDS011;59568;52.128;5.434;2024-03-08T00:27:39;18.90;;;9.27;;
71715;SDS011;59568;52.128;5.434;2024-03-08T00:30:10;20.23;;;10.30;;
71715;SDS011;59568;52.128;5.434;2024-03-08T00:32:40;21.10;;;9.45;;
71715;SDS011;59568;52.128;5.434;2024-03-08T00:35:07;25.75;;;10.68;;
71715;SDS011;59568;52.128;5.434;2024-03-08T00:37:35;19.48;;;9.07;;
71715;SDS011;59568;52.128;5.434;2024-03-08T00:40:02;22.70;;;10.33;;
71715;SDS011;59568;52.128;5.434;2024-03-08T00:42:29;23.13;;;9.95;;
71715;SDS011;59568;52.128;5.434;2024-03-08T00:44:56;20.77;;;9.98;;
71715;SDS011;59568;52.128;5.434;2024-03-08T00:47:25;20.25;;;9.55;;
71715;SDS011;59568;52.128;5.434;2024-03-08T00:49:52;21.65;;;10.20;;
71715;SDS011;59568;52.128;5.434;2024-03-08T00:52:19;19.97;;;9.00;;
71715;SDS011;59568;52.128;5.434;2024-03-08T00:54:46;22.70;;;9.85;;
71715;SDS011;59568;52.128;5.434;2024-03-08T00:57:13;22.60;;;9.23;;
71715;SDS011;59568;52.128;5.434;2024-03-08T00:59:40;21.25;;;10.32;;
71715;SDS011;59568;52.128;5.434;2024-03-08T01:02:07;21.70;;;10.10;;
71715;SDS011;59568;52.128;5.434;2024-03-08T01:04:35;21.33;;;9.67;;
71715;SDS011;59568;52.128;5.434;2024-03-08T01:07:02;19.20;;;9.65;;
71715;SDS011;59568;52.128;5.434;2024-03-08T01:09:29;18.88;;;9.68;;
71715;SDS011;59568;52.128;5.434;2024-03-08T01:11:56;18.77;;;8.63;;
71715;SDS011;59568;52.128;5.434;2024-03-08T01:14:23;19.60;;;10.18;;
71715;SDS011;59568;52.128;5.434;2024-03-08T01:16:55;20.83;;;9.53;;
71715;SDS011;59568;52.128;5.434;2024-03-08T01:19:23;25.85;;;10.23;;
71715;SDS011;59568;52.128;5.434;2024-03-08T01:21:51;19.20;;;9.65;;
71715;SDS011;59568;52.128;5.434;2024-03-08T01:24:17;24.95;;;9.68;;
71715;SDS011;59568;52.128;5.434;2024-03-08T01:26:44;23.00;;;11.88;;
71715;SDS011;59568;52.128;5.434;2024-03-08T01:29:11;20.17;;;8.90;;
71715;SDS011;59568;52.128;5.434;2024-03-08T01:31:38;23.92;;;9.90;;
71715;SDS011;59568;52.128;5.434;2024-03-08T01:34:05;22.48;;;8.93;;
71715;SDS011;59568;52.128;5.434;2024-03-08T01:36:32;17.98;;;9.75;;
71715;SDS011;59568;52.128;5.434;2024-03-08T01:38:59;18.55;;;8.60;;
71715;SDS011;59568;52.128;5.434;2024-03-08T01:41:26;19.53;;;9.77;;
71715;SDS011;59568;52.128;5.434;2024-03-08T01:43:56;19.52;;;10.27;;
71715;SDS011;59568;52.128;5.434;2024-03-08T01:46:23;26.45;;;10.90;;
71715;SDS011;59568;52.128;5.434;2024-03-08T01:48:50;22.33;;;9.57;;
71715;SDS011;59568;52.128;5.434;2024-03-08T01:51:18;21.05;;;10.05;;
71715;SDS011;59568;52.128;5.434;2024-03-08T01:53:46;20.93;;;9.43;;
71715;SDS011;59568;52.128;5.434;2024-03-08T01:56:14;21.40;;;10.23;;
71715;SDS011;59568;52.128;5.434;2024-03-08T01:58:42;20.90;;;8.68;;
71715;SDS011;59568;52.128;5.434;2024-03-08T02:01:13;22.83;;;10.75;;
71715;SDS011;59568;52.128;5.434;2024-03-08T02:03:43;23.80;;;9.57;;
71715;SDS011;59568;52.128;5.434;2024-03-08T02:06:11;22.40;;;10.37;;
71715;SDS011;59568;52.128;5.434;2024-03-08T02:08:44;21.25;;;9.55;;
71715;SDS011;59568;52.128;5.434;2024-03-08T02:11:13;21.63;;;9.85;;
71715;SDS011;59568;52.128;5.434;2024-03-08T02:13:40;21.25;;;8.45;;
71715;SDS011;59568;52.128;5.434;2024-03-08T02:16:08;25.73;;;11.38;;
71715;SDS011;59568;52.128;5.434;2024-03-08T02:18:36;22.43;;;10.03;;
71715;SDS011;59568;52.128;5.434;2024-03-08T02:21:04;14.90;;;7.97;;
71715;SDS011;59568;52.128;5.434;2024-03-08T02:23:33;23.38;;;10.18;;
71715;SDS011;59568;52.128;5.434;2024-03-08T02:26:01;19.88;;;9.65;;
71715;SDS011;59568;52.128;5.434;2024-03-08T02:28:28;24.45;;;10.07;;
71715;SDS011;59568;52.128;5.434;2024-03-08T02:30:55;19.20;;;9.33;;
71715;SDS011;59568;52.128;5.434;2024-03-08T02:33:24;21.27;;;9.25;;
71715;SDS011;59568;52.128;5.434;2024-03-08T02:35:54;23.58;;;11.35;;
71715;SDS011;59568;52.128;5.434;2024-03-08T02:38:24;21.42;;;10.02;;
71715;SDS011;59568;52.128;5.434;2024-03-08T02:40:53;20.08;;;10.02;;
71715;SDS011;59568;52.128;5.434;2024-03-08T02:43:21;17.73;;;9.10;;
71715;SDS011;59568;52.128;5.434;2024-03-08T02:45:49;20.23;;;9.82;;
71715;SDS011;59568;52.128;5.434;2024-03-08T02:48:19;19.65;;;9.60;;
71715;SDS011;59568;52.128;5.434;2024-03-08T02:50:48;23.17;;;9.40;;
71715;SDS011;59568;52.128;5.434;2024-03-08T02:53:18;20.73;;;10.50;;
71715;SDS011;59568;52.128;5.434;2024-03-08T02:55:49;21.87;;;10.23;;
71715;SDS011;59568;52.128;5.434;2024-03-08T02:58:16;23.38;;;10.18;;
71715;SDS011;59568;52.128;5.434;2024-03-08T03:00:42;24.58;;;9.90;;
71715;SDS011;59568;52.128;5.434;2024-03-08T03:03:10;25.30;;;10.48;;
71715;SDS011;59568;52.128;5.434;2024-03-08T03:05:37;19.42;;;9.18;;
71715;SDS011;59568;52.128;5.434;2024-03-08T03:08:04;22.17;;;10.30;;
71715;SDS011;59568;52.128;5.434;2024-03-08T03:10:36;21.20;;;9.30;;
71715;SDS011;59568;52.128;5.434;2024-03-08T03:13:03;16.40;;;8.45;;
71715;SDS011;59568;52.128;5.434;2024-03-08T03:15:35;23.05;;;9.57;;
71715;SDS011;59568;52.128;5.434;2024-03-08T03:18:03;21.20;;;9.75;;
71715;SDS011;59568;52.128;5.434;2024-03-08T03:20:35;19.90;;;9.43;;
71715;SDS011;59568;52.128;5.434;2024-03-08T03:23:08;20.13;;;9.77;;
71715;SDS011;59568;52.128;5.434;2024-03-08T03:25:35;21.95;;;10.82;;
71715;SDS011;59568;52.128;5.434;2024-03-08T03:28:05;22.00;;;10.43;;
71715;SDS011;59568;52.128;5.434;2024-03-08T03:30:34;20.40;;;8.77;;
71715;SDS011;59568;52.128;5.434;2024-03-08T03:33:01;18.67;;;9.03;;
71715;SDS011;59568;52.128;5.434;2024-03-08T03:35:34;18.65;;;10.63;;
71715;SDS011;59568;52.128;5.434;2024-03-08T03:38:03;18.35;;;9.90;;
71715;SDS011;59568;52.128;5.434;2024-03-08T03:40:36;19.02;;;9.43;;
71715;SDS011;59568;52.128;5.434;2024-03-08T03:43:04;23.25;;;10.73;;
71715;SDS011;59568;52.128;5.434;2024-03-08T03:45:31;22.67;;;10.60;;
71715;SDS011;59568;52.128;5.434;2024-03-08T03:48:03;25.25;;;11.02;;
71715;SDS011;59568;52.128;5.434;2024-03-08T03:50:31;18.83;;;8.57;;
71715;SDS011;59568;52.128;5.434;2024-03-08T03:53:02;20.77;;;10.02;;
71715;SDS011;59568;52.128;5.434;2024-03-08T03:55:30;19.88;;;9.48;;
71715;SDS011;59568;52.128;5.434;2024-03-08T03:57:57;21.07;;;9.47;;
71715;SDS011;59568;52.128;5.434;2024-03-08T04:00:26;20.30;;;9.30;;
71715;SDS011;59568;52.128;5.434;2024-03-08T04:02:54;20.58;;;10.20;;
71715;SDS011;59568;52.128;5.434;2024-03-08T04:05:25;25.90;;;10.50;;
71715;SDS011;59568;52.128;5.434;2024-03-08T04:07:53;23.23;;;10.82;;
71715;SDS011;59568;52.128;5.434;2024-03-08T04:10:20;19.90;;;9.87;;
71715;SDS011;59568;52.128;5.434;2024-03-08T04:12:47;21.92;;;10.68;;
71715;SDS011;59568;52.128;5.434;2024-03-08T04:15:14;23.17;;;10.88;;
71715;SDS011;59568;52.128;5.434;2024-03-08T04:17:42;24.13;;;11.55;;
71715;SDS011;59568;52.128;5.434;2024-03-08T04:20:09;23.83;;;10.82;;
71715;SDS011;59568;52.128;5.434;2024-03-08T04:22:37;18.50;;;10.33;;
71715;SDS011;59568;52.128;5.434;2024-03-08T04:25:06;22.13;;;11.32;;
71715;SDS011;59568;52.128;5.434;2024-03-08T04:27:33;24.17;;;10.73;;
71715;SDS011;59568;52.128;5.434;2024-03-08T04:30:04;18.33;;;10.45;;
71715;SDS011;59568;52.128;5.434;2024-03-08T04:32:34;23.30;;;10.55;;
71715;SDS011;59568;52.128;5.434;2024-03-08T04:35:02;21.87;;;10.83;;
71715;SDS011;59568;52.128;5.434;2024-03-08T04:37:30;22.45;;;10.68;;
71715;SDS011;59568;52.128;5.434;2024-03-08T04:39:58;23.77;;;10.90;;
71715;SDS011;59568;52.128;5.434;2024-03-08T04:42:26;22.33;;;9.93;;
71715;SDS011;59568;52.128;5.434;2024-03-08T04:44:56;23.33;;;10.93;;
71715;SDS011;59568;52.128;5.434;2024-03-08T04:47:24;20.33;;;10.03;;
71715;SDS011;59568;52.128;5.434;2024-03-08T04:49:52;20.33;;;10.70;;
71715;SDS011;59568;52.128;5.434;2024-03-08T04:52:19;22.58;;;9.65;;
71715;SDS011;59568;52.128;5.434;2024-03-08T04:54:46;17.88;;;10.05;;
71715;SDS011;59568;52.128;5.434;2024-03-08T04:57:13;20.40;;;10.07;;
71715;SDS011;59568;52.128;5.434;2024-03-08T04:59:41;23.80;;;10.50;;
71715;SDS011;59568;52.128;5.434;2024-03-08T05:02:08;20.75;;;10.48;;
71715;SDS011;59568;52.128;5.434;2024-03-08T05:04:34;20.00;;;11.00;;
71715;SDS011;59568;52.128;5.434;2024-03-08T05:07:02;19.00;;;10.35;;
71715;SDS011;59568;52.128;5.434;2024-03-08T05:09:30;23.20;;;9.63;;
71715;SDS011;59568;52.128;5.434;2024-03-08T05:11:58;20.43;;;10.03;;
71715;SDS011;59568;52.128;5.434;2024-03-08T05:14:26;20.08;;;10.07;;
71715;SDS011;59568;52.128;5.434;2024-03-08T05:16:53;20.02;;;9.60;;
71715;SDS011;59568;52.128;5.434;2024-03-08T05:19:20;24.33;;;10.25;;
71715;SDS011;59568;52.128;5.434;2024-03-08T05:21:48;20.95;;;9.90;;
71715;SDS011;59568;52.128;5.434;2024-03-08T05:24:16;17.40;;;9.03;;
71715;SDS011;59568;52.128;5.434;2024-03-08T05:26:45;23.35;;;9.90;;
71715;SDS011;59568;52.128;5.434;2024-03-08T05:29:13;20.88;;;10.25;;
71715;SDS011;59568;52.128;5.434;2024-03-08T05:31:47;26.88;;;11.88;;
71715;SDS011;59568;52.128;5.434;2024-03-08T05:34:16;19.30;;;10.05;;
71715;SDS011;59568;52.128;5.434;2024-03-08T05:36:43;15.93;;;9.00;;
71715;SDS011;59568;52.128;5.434;2024-03-08T05:39:15;22.52;;;11.20;;
71715;SDS011;59568;52.128;5.434;2024-03-08T05:41:42;20.45;;;9.65;;
71715;SDS011;59568;52.128;5.434;2024-03-08T05:44:10;25.00;;;11.88;;
71715;SDS011;59568;52.128;5.434;2024-03-08T05:46:38;18.23;;;9.48;;
71715;SDS011;59568;52.128;5.434;2024-03-08T05:49:06;22.33;;;11.67;;
71715;SDS011;59568;52.128;5.434;2024-03-08T05:51:34;18.77;;;9.32;;
71715;SDS011;59568;52.128;5.434;2024-03-08T05:54:05;22.40;;;11.43;;
71715;SDS011;59568;52.128;5.434;2024-03-08T05:56:36;20.48;;;9.35;;
71715;SDS011;59568;52.128;5.434;2024-03-08T05:59:03;21.77;;;11.13;;
71715;SDS011;59568;52.128;5.434;2024-03-08T06:01:33;21.37;;;9.77;;
71715;SDS011;59568;52.128;5.434;2024-03-08T06:04:03;24.70;;;11.15;;
71715;SDS011;59568;52.128;5.434;2024-03-08T06:06:30;24.95;;;10.93;;
71715;SDS011;59568;52.128;5.434;2024-03-08T06:08:57;21.60;;;10.98;;
71715;SDS011;59568;52.128;5.434;2024-03-08T06:11:25;21.10;;;10.60;;
71715;SDS011;59568;52.128;5.434;2024-03-08T06:13:57;22.00;;;10.77;;
71715;SDS011;59568;52.128;5.434;2024-03-08T06:16:27;20.80;;;10.45;;
71715;SDS011;59568;52.128;5.434;2024-03-08T06:18:56;23.90;;;11.57;;
71715;SDS011;59568;52.128;5.434;2024-03-08T06:21:24;18.13;;;9.82;;
71715;SDS011;59568;52.128;5.434;2024-03-08T06:23:55;21.58;;;10.43;;
71715;SDS011;59568;52.128;5.434;2024-03-08T06:26:24;24.37;;;10.30;;
71715;SDS011;59568;52.128;5.434;2024-03-08T06:28:55;20.65;;;10.23;;
71715;SDS011;59568;52.128;5.434;2024-03-08T06:31:23;26.13;;;10.77;;
71715;SDS011;59568;52.128;5.434;2024-03-08T06:33:50;22.83;;;10.32;;
71715;SDS011;59568;52.128;5.434;2024-03-08T06:36:17;21.02;;;10.48;;
71715;SDS011;59568;52.128;5.434;2024-03-08T06:38:45;20.37;;;10.57;;
71715;SDS011;59568;52.128;5.434;2024-03-08T06:41:12;22.38;;;11.45;;
71715;SDS011;59568;52.128;5.434;2024-03-08T06:43:43;22.95;;;11.18;;
71715;SDS011;59568;52.128;5.434;2024-03-08T06:46:11;19.60;;;9.45;;
71715;SDS011;59568;52.128;5.434;2024-03-08T06:48:39;20.00;;;9.82;;
71715;SDS011;59568;52.128;5.434;2024-03-08T06:51:07;22.03;;;11.80;;
71715;SDS011;59568;52.128;5.434;2024-03-08T06:53:34;24.45;;;11.55;;
71715;SDS011;59568;52.128;5.434;2024-03-08T06:56:05;20.63;;;10.55;;
71715;SDS011;59568;52.128;5.434;2024-03-08T06:58:34;19.60;;;10.45;;
71715;SDS011;59568;52.128;5.434;2024-03-08T07:01:02;25.10;;;10.05;;
71715;SDS011;59568;52.128;5.434;2024-03-08T07:03:31;25.30;;;10.93;;
71715;SDS011;59568;52.128;5.434;2024-03-08T07:05:59;23.98;;;10.60;;
71715;SDS011;59568;52.128;5.434;2024-03-08T07:08:30;21.42;;;10.32;;
71715;SDS011;59568;52.128;5.434;2024-03-08T07:10:58;20.55;;;10.27;;
71715;SDS011;59568;52.128;5.434;2024-03-08T07:13:26;22.65;;;10.90;;
71715;SDS011;59568;52.128;5.434;2024-03-08T07:15:55;27.63;;;10.77;;
71715;SDS011;59568;52.128;5.434;2024-03-08T07:18:22;22.05;;;11.35;;
71715;SDS011;59568;52.128;5.434;2024-03-08T07:20:50;21.60;;;10.77;;
71715;SDS011;59568;52.128;5.434;2024-03-08T07:23:17;27.08;;;13.13;;
71715;SDS011;59568;52.128;5.434;2024-03-08T07:26:10;22.05;;;11.68;;
71715;SDS011;59568;52.128;5.434;2024-03-08T07:28:37;22.63;;;12.47;;
71715;SDS011;59568;52.128;5.434;2024-03-08T07:31:04;26.88;;;12.23;;
71715;SDS011;59568;52.128;5.434;2024-03-08T07:33:44;20.70;;;10.60;;
71715;SDS011;59568;52.128;5.434;2024-03-08T07:36:11;22.08;;;12.15;;
71715;SDS011;59568;52.128;5.434;2024-03-08T07:38:39;23.40;;;11.15;;
71715;SDS011;59568;52.128;5.434;2024-03-08T07:41:06;23.27;;;11.87;;
71715;SDS011;59568;52.128;5.434;2024-03-08T07:43:33;18.67;;;10.82;;
71715;SDS011;59568;52.128;5.434;2024-03-08T07:46:00;22.15;;;12.13;;
71715;SDS011;59568;52.128;5.434;2024-03-08T07:48:27;24.10;;;12.07;;
71715;SDS011;59568;52.128;5.434;2024-03-08T07:50:54;25.15;;;12.80;;
71715;SDS011;59568;52.128;5.434;2024-03-08T07:53:22;20.53;;;11.33;;
71715;SDS011;59568;52.128;5.434;2024-03-08T07:55:51;23.30;;;12.40;;
71715;SDS011;59568;52.128;5.434;2024-03-08T07:58:19;22.65;;;12.07;;
71715;SDS011;59568;52.128;5.434;2024-03-08T08:00:46;24.80;;;11.30;;
71715;SDS011;59568;52.128;5.434;2024-03-08T08:03:13;27.15;;;13.60;;
71715;SDS011;59568;52.128;5.434;2024-03-08T08:05:40;24.57;;;12.83;;
71715;SDS011;59568;52.128;5.434;2024-03-08T08:08:07;25.67;;;12.57;;
71715;SDS011;59568;52.128;5.434;2024-03-08T08:10:37;22.65;;;12.23;;
71715;SDS011;59568;52.128;5.434;2024-03-08T08:13:04;25.05;;;12.18;;
71715;SDS011;59568;52.128;5.434;2024-03-08T08:15:32;27.63;;;12.18;;
71715;SDS011;59568;52.128;5.434;2024-03-08T08:18:02;25.07;;;12.47;;
71715;SDS011;59568;52.128;5.434;2024-03-08T08:20:33;23.88;;;13.15;;
71715;SDS011;59568;52.128;5.434;2024-03-08T08:23:00;23.20;;;11.38;;
71715;SDS011;59568;52.128;5.434;2024-03-08T08:25:27;25.30;;;12.27;;
71715;SDS011;59568;52.128;5.434;2024-03-08T08:27:54;27.42;;;12.60;;
71715;SDS011;59568;52.128;5.434;2024-03-08T08:30:21;21.17;;;10.80;;
71715;SDS011;59568;52.128;5.434;2024-03-08T08:32:49;22.63;;;11.90;;
71715;SDS011;59568;52.128;5.434;2024-03-08T08:35:16;21.65;;;11.80;;
71715;SDS011;59568;52.128;5.434;2024-03-08T08:37:45;23.98;;;12.38;;
71715;SDS011;59568;52.128;5.434;2024-03-08T08:40:13;21.80;;;12.05;;
71715;SDS011;59568;52.128;5.434;2024-03-08T08:42:45;24.33;;;11.97;;
71715;SDS011;59568;52.128;5.434;2024-03-08T08:45:15;24.48;;;12.38;;
71715;SDS011;59568;52.128;5.434;2024-03-08T08:47:50;22.52;;;12.57;;
71715;SDS011;59568;52.128;5.434;2024-03-08T08:50:18;23.25;;;10.77;;
71715;SDS011;59568;52.128;5.434;2024-03-08T08:52:55;23.48;;;12.07;;
71715;SDS011;59568;52.128;5.434;2024-03-08T08:55:22;26.60;;;11.73;;
71715;SDS011;59568;52.128;5.434;2024-03-08T08:57:53;21.38;;;11.35;;
71715;SDS011;59568;52.128;5.434;2024-03-08T09:00:20;21.20;;;12.10;;
71715;SDS011;59568;52.128;5.434;2024-03-08T09:02:50;22.13;;;12.02;;
71715;SDS011;59568;52.128;5.434;2024-03-08T09:05:18;26.95;;;13.02;;
71715;SDS011;59568;52.128;5.434;2024-03-08T09:07:45;21.70;;;11.27;;
71715;SDS011;59568;52.128;5.434;2024-03-08T09:10:12;22.30;;;11.38;;
71715;SDS011;59568;52.128;5.434;2024-03-08T09:12:43;23.85;;;11.75;;
71715;SDS011;59568;52.128;5.434;2024-03-08T09:15:11;19.80;;;10.75;;
71715;SDS011;59568;52.128;5.434;2024-03-08T09:17:39;23.60;;;11.70;;
71715;SDS011;59568;52.128;5.434;2024-03-08T09:20:07;22.87;;;11.03;;
71715;SDS011;59568;52.128;5.434;2024-03-08T09:22:44;24.10;;;11.38;;
71715;SDS011;59568;52.128;5.434;2024-03-08T09:25:13;22.38;;;12.63;;
71715;SDS011;59568;52.128;5.434;2024-03-08T09:27:40;23.05;;;12.40;;
71715;SDS011;59568;52.128;5.434;2024-03-08T09:30:08;20.88;;;11.52;;
71715;SDS011;59568;52.128;5.434;2024-03-08T09:32:35;25.13;;;12.40;;
71715;SDS011;59568;52.128;5.434;2024-03-08T09:35:04;27.38;;;13.23;;
71715;SDS011;59568;52.128;5.434;2024-03-08T09:37:34;21.60;;;11.00;;
71715;SDS011;59568;52.128;5.434;2024-03-08T09:40:02;21.80;;;11.23;;
71715;SDS011;59568;52.128;5.434;2024-03-08T09:42:37;20.98;;;11.88;;
71715;SDS011;59568;52.128;5.434;2024-03-08T09:45:10;25.73;;;11.77;;
71715;SDS011;59568;52.128;5.434;2024-03-08T09:47:44;24.77;;;12.98;;
71715;SDS011;59568;52.128;5.434;2024-03-08T09:50:12;23.30;;;12.05;;
71715;SDS011;59568;52.128;5.434;2024-03-08T09:52:39;24.15;;;11.80;;
71715;SDS011;59568;52.128;5.434;2024-03-08T09:55:07;21.25;;;11.27;;
71715;SDS011;59568;52.128;5.434;2024-03-08T09:57:38;21.77;;;12.33;;
71715;SDS011;59568;52.128;5.434;2024-03-08T10:00:06;21.10;;;11.45;;
71715;SDS011;59568;52.128;5.434;2024-03-08T10:02:51;24.48;;;11.48;;
71715;SDS011;59568;52.128;5.434;2024-03-08T10:05:21;22.63;;;11.50;;
71715;SDS011;59568;52.128;5.434;2024-03-08T10:07:49;21.63;;;11.65;;
71715;SDS011;59568;52.128;5.434;2024-03-08T10:10:16;23.60;;;11.03;;
71715;SDS011;59568;52.128;5.434;2024-03-08T10:12:44;23.00;;;11.85;;
71715;SDS011;59568;52.128;5.434;2024-03-08T10:15:12;22.20;;;11.38;;
71715;SDS011;59568;52.128;5.434;2024-03-08T10:17:41;23.92;;;12.02;;
71715;SDS011;59568;52.128;5.434;2024-03-08T10:20:14;20.30;;;11.00;;
71715;SDS011;59568;52.128;5.434;2024-03-08T10:22:45;21.33;;;10.90;;
71715;SDS011;59568;52.128;5.434;2024-03-08T10:25:28;22.77;;;11.77;;
71715;SDS011;59568;52.128;5.434;2024-03-08T10:27:57;20.88;;;11.73;;
71715;SDS011;59568;52.128;5.434;2024-03-08T10:30:24;20.25;;;10.32;;
71715;SDS011;59568;52.128;5.434;2024-03-08T10:32:51;20.83;;;10.23;;
71715;SDS011;59568;52.128;5.434;2024-03-08T10:35:18;17.83;;;10.00;;
71715;SDS011;59568;52.128;5.434;2024-03-08T10:37:51;18.35;;;10.35;;
71715;SDS011;59568;52.128;5.434;2024-03-08T10:40:25;19.30;;;10.23;;
71715;SDS011;59568;52.128;5.434;2024-03-08T10:42:54;24.30;;;12.23;;
71715;SDS011;59568;52.128;5.434;2024-03-08T10:45:35;20.95;;;11.02;;
71715;SDS011;59568;52.128;5.434;2024-03-08T10:48:07;19.50;;;9.50;;
71715;SDS011;59568;52.128;5.434;2024-03-08T10:50:36;18.88;;;10.70;;
71715;SDS011;59568;52.128;5.434;2024-03-08T10:53:06;21.20;;;10.93;;
71715;SDS011;59568;52.128;5.434;2024-03-08T10:55:33;24.27;;;10.85;;
71715;SDS011;59568;52.128;5.434;2024-03-08T10:58:03;23.67;;;11.38;;
71715;SDS011;59568;52.128;5.434;2024-03-08T11:00:30;22.63;;;11.70;;
71715;SDS011;59568;52.128;5.434;2024-03-08T11:02:58;17.98;;;11.20;;
71715;SDS011;59568;52.128;5.434;2024-03-08T11:05:39;20.80;;;11.75;;
71715;SDS011;59568;52.128;5.434;2024-03-08T11:10:54;20.75;;;10.63;;
71715;SDS011;59568;52.128;5.434;2024-03-08T11:13:39;16.50;;;9.43;;
71715;SDS011;59568;52.128;5.434;2024-03-08T11:16:08;22.40;;;10.90;;
71715;SDS011;59568;52.128;5.434;2024-03-08T11:18:39;22.35;;;11.00;;
71715;SDS011;59568;52.128;5.434;2024-03-08T11:21:09;20.20;;;10.40;;
71715;SDS011;59568;52.128;5.434;2024-03-08T11:23:40;18.92;;;10.50;;
71715;SDS011;59568;52.128;5.434;2024-03-08T11:26:20;19.73;;;10.37;;
71715;SDS011;59568;52.128;5.434;2024-03-08T11:28:50;16.98;;;9.65;;
71715;SDS011;59568;52.128;5.434;2024-03-08T11:31:23;18.08;;;10.73;;
71715;SDS011;59568;52.128;5.434;2024-03-08T11:33:52;18.73;;;10.32;;
71715;SDS011;59568;52.128;5.434;2024-03-08T11:36:23;18.40;;;10.05;;
71715;SDS011;59568;52.128;5.434;2024-03-08T11:38:52;17.20;;;9.37;;
71715;SDS011;59568;52.128;5.434;2024-03-08T11:41:21;17.63;;;9.57;;
71715;SDS011;59568;52.128;5.434;2024-03-08T11:43:50;17.80;;;9.40;;
71715;SDS011;59568;52.128;5.434;2024-03-08T11:46:32;17.15;;;9.68;;
71715;SDS011;59568;52.128;5.434;2024-03-08T11:49:00;14.00;;;8.48;;
71715;SDS011;59568;52.128;5.434;2024-03-08T11:51:27;16.60;;;8.90;;
71715;SDS011;59568;52.128;5.434;2024-03-08T11:53:54;15.20;;;9.55;;
71715;SDS011;59568;52.128;5.434;2024-03-08T11:56:22;14.05;;;8.90;;
71715;SDS011;59568;52.128;5.434;2024-03-08T11:58:54;17.42;;;9.40;;
71715;SDS011;59568;52.128;5.434;2024-03-08T12:01:25;14.80;;;7.68;;
71715;SDS011;59568;52.128;5.434;2024-03-08T12:03:55;14.87;;;8.57;;
71715;SDS011;59568;52.128;5.434;2024-03-08T12:06:25;15.60;;;8.68;;
71715;SDS011;59568;52.128;5.434;2024-03-08T12:08:54;19.30;;;8.82;;
71715;SDS011;59568;52.128;5.434;2024-03-08T12:11:21;13.95;;;9.02;;
71715;SDS011;59568;52.128;5.434;2024-03-08T12:13:55;15.13;;;8.88;;
71715;SDS011;59568;52.128;5.434;2024-03-08T12:16:24;12.70;;;7.83;;
71715;SDS011;59568;52.128;5.434;2024-03-08T12:18:51;13.98;;;7.88;;
71715;SDS011;59568;52.128;5.434;2024-03-08T12:21:20;14.73;;;8.13;;
71715;SDS011;59568;52.128;5.434;2024-03-08T12:23:53;11.52;;;7.93;;
71715;SDS011;59568;52.128;5.434;2024-03-08T12:26:35;14.32;;;7.45;;
71715;SDS011;59568;52.128;5.434;2024-03-08T12:29:16;14.40;;;7.93;;
71715;SDS011;59568;52.128;5.434;2024-03-08T12:31:55;13.38;;;8.82;;
71715;SDS011;59568;52.128;5.434;2024-03-08T12:34:27;14.40;;;8.35;;
71715;SDS011;59568;52.128;5.434;2024-03-08T12:36:55;16.45;;;8.57;;
71715;SDS011;59568;52.128;5.434;2024-03-08T12:39:22;15.85;;;8.65;;
71715;SDS011;59568;52.128;5.434;2024-03-08T12:41:59;14.27;;;7.87;;
71715;SDS011;59568;52.128;5.434;2024-03-08T12:44:26;13.68;;;8.40;;
71715;SDS011;59568;52.128;5.434;2024-03-08T12:46:55;15.73;;;8.30;;
71715;SDS011;59568;52.128;5.434;2024-03-08T12:49:26;16.58;;;8.50;;
71715;SDS011;59568;52.128;5.434;2024-03-08T12:51:53;17.23;;;8.68;;
71715;SDS011;59568;52.128;5.434;2024-03-08T12:54:21;17.57;;;8.43;;
71715;SDS011;59568;52.128;5.434;2024-03-08T12:56:50;16.73;;;8.77;;
71715;SDS011;59568;52.128;5.434;2024-03-08T12:59:21;17.98;;;8.73;;
71715;SDS011;59568;52.128;5.434;2024-03-08T13:01:48;15.10;;;8.02;;
71715;SDS011;59568;52.128;5.434;2024-03-08T13:04:18;15.32;;;8.32;;
71715;SDS011;59568;52.128;5.434;2024-03-08T13:06:45;14.57;;;8.47;;
71715;SDS011;59568;52.128;5.434;2024-03-08T13:09:20;16.25;;;8.80;;
71715;SDS011;59568;52.128;5.434;2024-03-08T13:11:49;15.27;;;9.20;;
71715;SDS011;59568;52.128;5.434;2024-03-08T13:14:16;17.73;;;8.95;;
71715;SDS011;59568;52.128;5.434;2024-03-08T13:16:43;15.15;;;9.30;;
71715;SDS011;59568;52.128;5.434;2024-03-08T13:19:15;14.77;;;8.97;;
71715;SDS011;59568;52.128;5.434;2024-03-08T13:21:43;20.48;;;9.48;;
71715;SDS011;59568;52.128;5.434;2024-03-08T13:24:10;15.63;;;9.18;;
71715;SDS011;59568;52.128;5.434;2024-03-08T13:26:38;18.65;;;9.73;;
71715;SDS011;59568;52.128;5.434;2024-03-08T13:29:05;17.20;;;9.43;;
71715;SDS011;59568;52.128;5.434;2024-03-08T13:31:33;14.27;;;7.73;;
71715;SDS011;59568;52.128;5.434;2024-03-08T13:34:03;16.23;;;8.65;;
71715;SDS011;59568;52.128;5.434;2024-03-08T13:36:31;16.23;;;8.68;;
71715;SDS011;59568;52.128;5.434;2024-03-08T13:39:06;14.38;;;8.73;;
71715;SDS011;59568;52.128;5.434;2024-03-08T13:41:42;15.18;;;9.35;;
71715;SDS011;59568;52.128;5.434;2024-03-08T13:44:09;16.97;;;9.43;;
71715;SDS011;59568;52.128;5.434;2024-03-08T13:46:36;15.68;;;8.52;;
71715;SDS011;59568;52.128;5.434;2024-03-08T13:49:04;17.33;;;8.82;;
71715;SDS011;59568;52.128;5.434;2024-03-08T13:51:36;15.95;;;9.13;;
71715;SDS011;59568;52.128;5.434;2024-03-08T13:54:03;16.55;;;8.95;;
71715;SDS011;59568;52.128;5.434;2024-03-08T13:56:33;18.40;;;9.73;;
71715;SDS011;59568;52.128;5.434;2024-03-08T13:59:01;19.65;;;8.98;;
71715;SDS011;59568;52.128;5.434;2024-03-08T14:01:29;15.68;;;8.77;;
71715;SDS011;59568;52.128;5.434;2024-03-08T14:03:57;15.35;;;8.90;;
71715;SDS011;59568;52.128;5.434;2024-03-08T14:06:23;16.02;;;9.50;;
71715;SDS011;59568;52.128;5.434;2024-03-08T14:08:57;14.77;;;8.33;;
71715;SDS011;59568;52.128;5.434;2024-03-08T14:11:24;17.23;;;8.55;;
71715;SDS011;59568;52.128;5.434;2024-03-08T14:13:52;15.95;;;8.85;;
71715;SDS011;59568;52.128;5.434;2024-03-08T14:16:19;17.55;;;9.02;;
71715;SDS011;59568;52.128;5.434;2024-03-08T14:18:47;15.70;;;8.77;;
71715;SDS011;59568;52.128;5.434;2024-03-08T14:21:14;13.73;;;8.00;;
71715;SDS011;59568;52.128;5.434;2024-03-08T14:23:41;16.48;;;8.10;;
71715;SDS011;59568;52.128;5.434;2024-03-08T14:26:09;18.58;;;9.32;;
71715;SDS011;59568;52.128;5.434;2024-03-08T14:28:37;17.13;;;9.38;;
71715;SDS011;59568;52.128;5.434;2024-03-08T14:31:05;18.85;;;10.35;;
71715;SDS011;59568;52.128;5.434;2024-03-08T14:33:37;16.83;;;8.80;;
71715;SDS011;59568;52.128;5.434;2024-03-08T14:36:05;20.25;;;10.02;;
71715;SDS011;59568;52.128;5.434;2024-03-08T14:38:32;16.67;;;8.98;;